createdAt,value
2023-12-18T00:00:00.123Z,91
2023-12-18T00:05:00.209Z,91
2023-12-18T00:10:00.227Z,91
2023-12-18T00:15:00.193Z,91
2023-12-18T00:20:01.934Z,90
2023-12-18T00:25:00.165Z,90
2023-12-18T00:30:00.194Z,90
2023-12-18T00:35:00.161Z,90
2023-12-18T00:40:00.153Z,90
2023-12-18T00:45:00.230Z,90
2023-12-18T00:50:00.232Z,90
2023-12-18T00:55:00.140Z,90
2023-12-18T01:00:00.145Z,90
2023-12-18T01:05:00.194Z,90
2023-12-18T01:10:00.247Z,90
2023-12-18T01:15:00.199Z,90
2023-12-18T01:20:00.164Z,91
2023-12-18T01:25:00.213Z,91
2023-12-18T01:30:00.227Z,91
2023-12-18T01:35:00.118Z,91
2023-12-18T01:40:00.120Z,91
2023-12-18T01:45:00.133Z,91
2023-12-18T01:50:00.227Z,91
2023-12-18T01:55:00.141Z,91
2023-12-18T02:00:00.141Z,91
2023-12-18T02:05:00.244Z,91
2023-12-18T02:10:00.153Z,91
2023-12-18T02:15:00.154Z,91
2023-12-18T02:20:00.318Z,91
2023-12-18T02:25:00.158Z,91
2023-12-18T02:30:00.150Z,91
2023-12-18T02:35:00.212Z,91
2023-12-18T02:40:00.191Z,91
2023-12-18T02:45:00.153Z,91
2023-12-18T02:50:00.118Z,91
2023-12-18T02:55:00.158Z,91
2023-12-18T03:00:00.175Z,91
2023-12-18T03:05:00.217Z,91
2023-12-18T03:10:00.167Z,91
2023-12-18T03:15:00.153Z,91
2023-12-18T03:20:00.139Z,91
2023-12-18T03:25:00.201Z,91
2023-12-18T03:30:00.126Z,91
2023-12-18T03:35:00.105Z,91
2023-12-18T03:40:00.148Z,91
2023-12-18T03:45:00.115Z,91
2023-12-18T03:50:00.177Z,91
2023-12-18T03:55:00.158Z,91
2023-12-18T04:00:00.117Z,91
2023-12-18T04:05:00.174Z,91
2023-12-18T04:10:00.161Z,91
2023-12-18T04:15:00.167Z,91
2023-12-18T04:20:00.152Z,92
2023-12-18T04:25:00.210Z,91
2023-12-18T04:30:00.126Z,91
2023-12-18T04:35:00.157Z,92
2023-12-18T04:40:00.351Z,92
2023-12-18T04:45:00.134Z,91
2023-12-18T04:50:00.118Z,92
2023-12-18T04:55:00.248Z,92
2023-12-18T05:00:00.096Z,92
2023-12-18T05:05:00.251Z,92
2023-12-18T05:10:00.223Z,92
2023-12-18T05:15:03.121Z,92
2023-12-18T05:20:00.173Z,92
2023-12-18T05:25:00.150Z,92
2023-12-18T05:30:00.144Z,92
2023-12-18T05:35:00.252Z,92
2023-12-18T05:40:00.165Z,92
2023-12-18T05:45:00.138Z,92
2023-12-18T05:50:00.274Z,92
2023-12-18T05:55:04.173Z,92
2023-12-18T06:00:00.103Z,92
2023-12-18T06:05:00.138Z,92
2023-12-18T06:10:00.144Z,92
2023-12-18T06:15:00.107Z,92
2023-12-18T06:20:00.151Z,92
2023-12-18T06:25:00.121Z,92
2023-12-18T06:30:00.209Z,92
2023-12-18T06:35:00.206Z,92
2023-12-18T06:40:00.139Z,92
2023-12-18T06:45:00.145Z,92
2023-12-18T06:50:00.122Z,92
2023-12-18T06:55:00.160Z,92
2023-12-18T07:00:00.121Z,92
2023-12-18T07:05:00.185Z,92
2023-12-18T07:10:00.263Z,92
2023-12-18T07:15:00.139Z,92
2023-12-18T07:20:00.140Z,92
2023-12-18T07:25:00.154Z,92
2023-12-18T07:30:00.109Z,92
2023-12-18T07:35:00.301Z,92
2023-12-18T07:40:00.172Z,92
2023-12-18T07:45:00.156Z,92
2023-12-18T07:50:00.517Z,92
2023-12-18T07:55:00.137Z,92
2023-12-18T08:00:00.111Z,92
2023-12-18T08:05:00.233Z,92
2023-12-18T08:10:00.151Z,92
2023-12-18T08:15:00.148Z,91
2023-12-18T08:20:00.156Z,91
2023-12-18T08:25:00.172Z,91
2023-12-18T08:30:00.129Z,91
2023-12-18T08:35:00.117Z,91
2023-12-18T08:40:00.217Z,91
2023-12-18T08:45:00.177Z,91
2023-12-18T08:50:00.121Z,90
2023-12-18T08:55:00.127Z,89
2023-12-18T09:00:00.118Z,89
2023-12-18T09:05:00.139Z,89
2023-12-18T09:10:00.151Z,89
2023-12-18T09:15:00.124Z,88
2023-12-18T09:20:00.184Z,87
2023-12-18T09:25:00.141Z,86
2023-12-18T09:30:00.251Z,84
2023-12-18T09:35:00.220Z,84
2023-12-18T09:40:00.172Z,84
2023-12-18T09:45:00.146Z,84
2023-12-18T09:50:00.227Z,83
2023-12-18T09:55:00.115Z,82
2023-12-18T10:00:00.103Z,83
2023-12-18T10:05:00.162Z,84
2023-12-18T10:10:00.174Z,83
2023-12-18T10:15:00.102Z,83
2023-12-18T10:20:00.200Z,83
2023-12-18T10:25:00.371Z,82
2023-12-18T10:30:00.147Z,81
2023-12-18T10:35:00.096Z,82
2023-12-18T10:40:00.177Z,82
2023-12-18T10:45:00.157Z,81
2023-12-18T10:50:00.172Z,82
2023-12-18T10:55:00.118Z,81
2023-12-18T11:00:00.330Z,80
2023-12-18T11:05:00.127Z,80
2023-12-18T11:10:00.174Z,80
2023-12-18T11:15:00.186Z,79
2023-12-18T11:20:00.247Z,77
2023-12-18T11:25:00.142Z,77
2023-12-18T11:30:00.162Z,78
2023-12-18T11:35:00.216Z,77
2023-12-18T11:40:00.189Z,77
2023-12-18T11:45:00.130Z,77
2023-12-18T11:50:00.309Z,76
2023-12-18T11:55:00.129Z,75
2023-12-18T12:00:00.226Z,74
2023-12-18T12:05:00.126Z,74
2023-12-18T12:10:00.177Z,73
2023-12-18T12:15:00.107Z,74
2023-12-18T12:20:00.172Z,74
2023-12-18T12:25:00.266Z,73
2023-12-18T12:30:00.186Z,71
2023-12-18T12:35:00.420Z,71
2023-12-18T12:40:00.203Z,73
2023-12-18T12:45:00.168Z,73
2023-12-18T12:50:00.353Z,74
2023-12-18T12:55:00.123Z,74
2023-12-18T13:00:00.353Z,75
2023-12-18T13:05:00.337Z,75
2023-12-18T13:10:00.351Z,75
2023-12-18T13:15:00.358Z,75
2023-12-18T13:20:09.381Z,75
2023-12-18T13:25:00.143Z,73
2023-12-18T13:30:00.310Z,72
2023-12-18T13:35:00.153Z,72
2023-12-18T13:40:00.584Z,73
2023-12-18T13:45:00.168Z,73
2023-12-18T13:50:00.914Z,73
2023-12-18T13:55:00.529Z,71
2023-12-18T14:00:00.128Z,70
2023-12-18T14:05:00.134Z,69
2023-12-18T14:10:00.167Z,69
2023-12-18T14:15:00.111Z,69
2023-12-18T14:20:00.728Z,69
2023-12-18T14:25:00.623Z,70
2023-12-18T14:30:00.287Z,71
2023-12-18T14:35:00.518Z,71
2023-12-18T14:40:00.351Z,72
2023-12-18T14:45:00.326Z,72
2023-12-18T14:50:00.216Z,73
2023-12-18T14:55:00.522Z,73
2023-12-18T15:00:00.165Z,74
2023-12-18T15:05:00.221Z,76
2023-12-18T15:10:00.679Z,78
2023-12-18T15:15:00.462Z,79
2023-12-18T15:20:00.208Z,81
2023-12-18T15:25:00.386Z,81
2023-12-18T15:30:00.164Z,83
2023-12-18T15:35:00.194Z,83
2023-12-18T15:40:00.363Z,84
2023-12-18T15:45:00.284Z,84
2023-12-18T15:50:00.936Z,85
2023-12-18T15:55:00.132Z,85
2023-12-18T16:00:00.281Z,85
2023-12-18T16:05:00.321Z,86
2023-12-18T16:10:00.219Z,86
2023-12-18T16:15:00.137Z,86
2023-12-18T16:20:00.177Z,86
2023-12-18T16:25:00.168Z,86
2023-12-18T16:30:06.157Z,86
2023-12-18T16:35:00.241Z,86
2023-12-18T16:40:00.287Z,87
2023-12-18T16:45:00.146Z,87
2023-12-18T16:50:00.111Z,87
2023-12-18T16:55:00.171Z,87
2023-12-18T17:00:09.194Z,87
2023-12-18T17:05:00.184Z,87
2023-12-18T17:10:00.217Z,87
2023-12-18T17:15:00.145Z,87
2023-12-18T17:20:00.395Z,87
2023-12-18T17:25:00.141Z,87
2023-12-18T17:30:00.121Z,87
2023-12-18T17:35:00.296Z,88
2023-12-18T17:40:00.211Z,88
2023-12-18T17:45:00.137Z,88
2023-12-18T17:50:00.830Z,88
2023-12-18T17:55:00.182Z,88
2023-12-18T18:00:00.112Z,86
2023-12-18T18:05:00.126Z,84
2023-12-18T18:10:00.201Z,84
2023-12-18T18:15:00.119Z,85
2023-12-18T18:20:00.210Z,83
2023-12-18T18:25:00.365Z,83
2023-12-18T18:30:00.219Z,83
2023-12-18T18:35:00.141Z,83
2023-12-18T18:40:00.234Z,83
2023-12-18T18:45:00.107Z,83
2023-12-18T18:50:00.268Z,83
2023-12-18T18:55:00.337Z,84
2023-12-18T19:00:00.151Z,84
2023-12-18T19:05:00.191Z,85
2023-12-18T19:10:00.325Z,86
2023-12-18T19:15:00.180Z,87
2023-12-18T19:20:00.122Z,86
2023-12-18T19:25:00.162Z,87
2023-12-18T19:30:00.127Z,87
2023-12-18T19:35:00.607Z,87
2023-12-18T19:40:00.200Z,88
2023-12-18T19:45:00.139Z,86
2023-12-18T19:50:00.251Z,85
2023-12-18T19:55:00.133Z,84
2023-12-18T20:00:00.176Z,84
2023-12-18T20:05:00.135Z,83
2023-12-18T20:10:00.262Z,83
2023-12-18T20:15:00.136Z,83
2023-12-18T20:20:00.195Z,83
2023-12-18T20:25:00.221Z,84
2023-12-18T20:30:00.111Z,83
2023-12-18T20:35:00.321Z,83
2023-12-18T20:40:00.362Z,83
2023-12-18T20:45:00.113Z,84
2023-12-18T20:50:00.319Z,85
2023-12-18T20:55:00.221Z,85
2023-12-18T21:00:13.838Z,86
2023-12-18T21:05:00.147Z,86
2023-12-18T21:10:00.154Z,85
2023-12-18T21:15:00.127Z,86
2023-12-18T21:20:00.158Z,85
2023-12-18T21:25:00.236Z,85
2023-12-18T21:30:00.363Z,85
2023-12-18T21:35:00.244Z,86
2023-12-18T21:40:00.221Z,87
2023-12-18T21:45:00.148Z,85
2023-12-18T21:50:00.490Z,85
2023-12-18T21:55:00.318Z,86
2023-12-18T22:00:00.130Z,86
2023-12-18T22:05:00.118Z,86
2023-12-18T22:10:00.291Z,85
2023-12-18T22:15:02.843Z,86
2023-12-18T22:20:00.242Z,86
2023-12-18T22:25:00.256Z,86
2023-12-18T22:30:00.186Z,86
2023-12-18T22:35:00.180Z,86
2023-12-18T22:40:00.281Z,86
2023-12-18T22:45:00.164Z,86
2023-12-18T22:50:00.351Z,87
2023-12-18T22:55:00.454Z,87
2023-12-18T23:00:00.180Z,87
2023-12-18T23:05:00.274Z,87
2023-12-18T23:10:00.386Z,87
2023-12-18T23:15:00.150Z,87
2023-12-18T23:20:00.302Z,87
2023-12-18T23:25:00.217Z,87
2023-12-18T23:30:00.142Z,85
2023-12-18T23:35:00.247Z,85
2023-12-18T23:40:00.180Z,85
2023-12-18T23:45:00.116Z,85
2023-12-18T23:50:00.120Z,86
2023-12-18T23:55:00.148Z,86
